Time;durP1;ratioP1;P1;durP2;ratioP2;P2;SDS_P1;SDS_P2;PMS_P1;PMS_P2;Temp;Humidity;BMP_temperature;BMP_pressure;BME280_temperature;BME280_humidity;BME280_pressure;Samples;Min_cycle;Max_cycle;Signal;HPM_P1;HPM_P2
2023/08/13 00:01:12;;;;;;;11.30;3.80;;;;;;;17.43;78.29;101593.25;6214928;23;20074;-79
2023/08/13 00:03:37;;;;;;;13.63;3.88;;;;;;;17.43;78.10;101595.13;6215141;23;20047;-82
2023/08/13 00:06:03;;;;;;;10.10;3.50;;;;;;;17.40;79.07;101595.47;6214954;23;20005;-81
2023/08/13 00:08:28;;;;;;;11.25;3.65;;;;;;;17.30;78.86;101588.59;6215152;23;20426;-81
2023/08/13 00:10:54;;;;;;;12.13;3.75;;;;;;;17.33;79.71;101596.22;6215007;23;20005;-81
2023/08/13 00:13:19;;;;;;;9.23;3.58;;;;;;;17.10;79.50;101564.22;6188510;23;20004;-81
2023/08/13 00:15:45;;;;;;;10.95;3.50;;;;;;;17.17;79.55;101580.38;6215492;23;20016;-81
2023/08/13 00:18:10;;;;;;;10.50;3.30;;;;;;;17.13;80.23;101557.66;6215722;23;20023;-81
2023/08/13 00:20:36;;;;;;;10.60;3.15;;;;;;;17.27;80.17;101591.63;6189959;23;20000;-80
2023/08/13 00:23:01;;;;;;;12.23;3.40;;;;;;;17.23;80.20;101593.03;6216200;23;20108;-82
2023/08/13 00:25:27;;;;;;;11.88;3.40;;;;;;;17.18;80.13;101587.41;6216566;23;20001;-82
2023/08/13 00:27:52;;;;;;;11.52;3.50;;;;;;;17.20;81.16;101580.00;6215866;23;20008;-81
2023/08/13 00:30:18;;;;;;;8.65;3.25;;;;;;;17.15;80.91;101579.72;6216820;23;20223;-81
2023/08/13 00:32:43;;;;;;;10.63;3.38;;;;;;;17.03;81.17;101580.19;6217038;23;20012;-80
2023/08/13 00:35:09;;;;;;;10.45;3.28;;;;;;;17.11;81.56;101591.84;6217495;23;20387;-81
2023/08/13 00:37:35;;;;;;;12.50;3.45;;;;;;;17.07;81.38;101586.84;6223814;23;20005;-81
2023/08/13 00:40:00;;;;;;;8.73;3.42;;;;;;;17.01;82.22;101571.50;6230906;23;20051;-82
2023/08/13 00:42:26;;;;;;;10.77;3.65;;;;;;;16.90;82.32;101561.25;6227915;23;19996;-82
2023/08/13 00:44:51;;;;;;;12.10;3.70;;;;;;;16.84;82.59;101570.03;6227634;23;20061;-81
2023/08/13 00:47:16;;;;;;;12.82;3.50;;;;;;;16.92;82.75;101580.63;6227265;23;20007;-81
2023/08/13 00:49:42;;;;;;;12.38;3.53;;;;;;;16.95;82.69;101577.59;6226894;23;20005;-82
2023/08/13 00:52:08;;;;;;;10.98;3.60;;;;;;;16.84;82.80;101575.38;6217737;23;20008;-82
2023/08/13 00:54:34;;;;;;;13.32;3.50;;;;;;;16.88;82.97;101577.50;6188876;23;20031;-82
2023/08/13 00:57:02;;;;;;;11.95;3.58;;;;;;;16.79;83.45;101560.69;6190107;23;20008;-81
2023/08/13 00:59:28;;;;;;;12.70;3.78;;;;;;;16.83;82.98;101573.72;6216931;23;20012;-81
2023/08/13 01:01:53;;;;;;;11.00;3.30;;;;;;;16.82;83.27;101570.22;6217190;23;20055;-81
2023/08/13 01:04:19;;;;;;;11.27;3.35;;;;;;;16.79;83.08;101568.72;6217166;23;20005;-81
2023/08/13 01:07:29;;;;;;;15.80;3.50;;;;;;;16.84;83.18;101580.75;6190236;23;20079;-82
2023/08/13 01:10:23;;;;;;;10.48;3.15;;;;;;;16.83;83.69;101571.91;6209022;23;20115;-83
2023/08/13 01:12:58;;;;;;;8.98;3.65;;;;;;;16.71;84.04;101560.78;6216564;23;20008;-80
2023/08/13 01:15:33;;;;;;;12.88;3.47;;;;;;;16.72;84.25;101569.69;6217145;23;20035;-81
2023/08/13 01:18:01;;;;;;;11.18;3.50;;;;;;;16.74;84.33;101573.84;6216316;23;20017;-82
2023/08/13 01:20:31;;;;;;;12.70;3.55;;;;;;;16.58;84.70;101565.97;6216503;23;20323;-82
2023/08/13 01:22:57;;;;;;;14.32;3.75;;;;;;;16.56;84.73;101562.63;6216532;23;20015;-81
2023/08/13 01:25:25;;;;;;;9.57;3.50;;;;;;;16.63;84.76;101575.09;6216667;23;20001;-82
2023/08/13 01:28:16;;;;;;;12.35;3.50;;;;;;;16.60;84.46;101571.97;6216254;23;20030;-82
2023/08/13 01:30:45;;;;;;;10.43;3.30;;;;;;;16.60;84.92;101580.00;6216545;23;20005;-81
2023/08/13 01:33:14;;;;;;;13.35;3.78;;;;;;;16.56;85.14;101584.03;6189944;23;20058;-82
2023/08/13 01:35:42;;;;;;;12.85;3.22;;;;;;;16.38;84.78;101561.16;6216588;23;20016;-82
2023/08/13 01:38:08;;;;;;;11.77;3.63;;;;;;;16.34;85.63;101560.66;6189605;23;20078;-81
2023/08/13 01:40:34;;;;;;;12.10;3.35;;;;;;;16.44;86.08;101587.19;6216319;23;20004;-80
2023/08/13 01:42:59;;;;;;;11.65;3.08;;;;;;;16.40;85.91;101581.34;6216161;23;20000;-82
2023/08/13 01:45:24;;;;;;;11.65;3.20;;;;;;;16.35;86.58;101577.56;6213847;23;20005;-81
2023/08/13 01:47:50;;;;;;;12.20;3.33;;;;;;;16.36;85.91;101579.22;6189274;23;20039;-81
2023/08/13 01:50:15;;;;;;;13.07;3.40;;;;;;;16.22;85.91;101568.31;6214851;23;20058;-81
2023/08/13 01:52:40;;;;;;;12.95;3.30;;;;;;;16.35;86.55;101583.75;6214107;23;20000;-82
2023/08/13 01:55:06;;;;;;;9.77;3.40;;;;;;;16.31;86.60;101581.63;6213601;23;20055;-81
2023/08/13 01:57:32;;;;;;;12.13;3.10;;;;;;;16.31;86.80;101573.59;6215076;23;20008;-83
2023/08/13 01:59:58;;;;;;;10.93;3.08;;;;;;;16.21;87.12;101565.81;6189801;23;20016;-81
2023/08/13 02:02:23;;;;;;;10.73;3.10;;;;;;;16.26;87.20;101580.34;6216399;23;20011;-81
2023/08/13 02:04:49;;;;;;;9.75;2.95;;;;;;;16.30;87.03;101579.97;6216253;23;20008;-80
2023/08/13 02:07:14;;;;;;;11.60;3.35;;;;;;;16.23;87.21;101574.50;6216243;23;20337;-81
2023/08/13 02:09:39;;;;;;;12.15;3.17;;;;;;;16.22;87.45;101579.03;6216378;23;20027;-81
2023/08/13 02:12:05;;;;;;;10.65;3.05;;;;;;;16.18;87.63;101572.34;6216014;23;20051;-82
2023/08/13 02:14:30;;;;;;;13.23;2.95;;;;;;;16.26;87.68;101588.34;6189546;23;20024;-82
2023/08/13 02:16:55;;;;;;;8.48;2.78;;;;;;;16.21;88.10;101566.66;6215903;23;20058;-80
2023/08/13 02:19:21;;;;;;;12.07;3.15;;;;;;;16.22;87.98;101562.13;6215717;23;20032;-82
2023/08/13 02:21:46;;;;;;;10.48;3.13;;;;;;;16.21;88.29;101561.31;6216073;23;20048;-82
2023/08/13 02:24:11;;;;;;;12.32;3.47;;;;;;;16.21;87.87;101563.13;6216260;23;20373;-81
2023/08/13 02:26:37;;;;;;;10.60;3.15;;;;;;;16.27;88.19;101570.44;6215840;23;20016;-82
2023/08/13 02:29:02;;;;;;;14.13;3.00;;;;;;;16.21;88.41;101566.66;6216242;23;20544;-82
2023/08/13 02:31:27;;;;;;;11.38;2.97;;;;;;;16.05;88.53;101540.03;6189544;23;20027;-83
2023/08/13 02:33:52;;;;;;;12.93;3.30;;;;;;;16.20;89.04;101566.84;6216219;23;20096;-81
2023/08/13 02:36:18;;;;;;;13.57;3.08;;;;;;;16.18;88.74;101572.34;6216010;23;20012;-82
2023/08/13 02:38:44;;;;;;;11.38;3.30;;;;;;;16.11;89.01;101555.38;6216517;23;20005;-82
2023/08/13 02:41:09;;;;;;;12.43;3.47;;;;;;;16.11;89.37;101560.72;6215864;23;20115;-82
2023/08/13 02:43:52;;;;;;;11.82;3.08;;;;;;;16.12;89.69;101562.38;6215902;23;20005;-82
2023/08/13 02:46:17;;;;;;;;;;;;;;;16.27;87.87;101573.13;6216307;23;20005;-82
2023/08/13 02:48:43;;;;;;;9.85;2.75;;;;;;;16.08;89.68;101555.75;6216013;23;19915;-82
2023/08/13 02:51:08;;;;;;;8.13;2.95;;;;;;;16.10;89.66;101556.38;6189323;23;20013;-83
2023/08/13 02:53:33;;;;;;;10.85;2.97;;;;;;;16.08;89.86;101553.88;6215942;23;20422;-82
2023/08/13 02:55:59;;;;;;;12.95;3.20;;;;;;;15.95;90.32;101535.78;6189115;23;20345;-82
2023/08/13 02:58:24;;;;;;;10.75;3.10;;;;;;;16.06;90.68;101557.75;6215572;23;20054;-83
2023/08/13 03:00:49;;;;;;;11.02;2.92;;;;;;;15.99;90.27;101547.78;6215967;23;20083;-83
2023/08/13 03:03:15;;;;;;;12.95;2.92;;;;;;;15.99;90.79;101547.78;6216057;23;20001;-83
2023/08/13 03:05:41;;;;;;;10.27;3.03;;;;;;;16.02;90.66;101551.13;6215882;23;20000;-83
2023/08/13 03:08:06;;;;;;;12.30;3.10;;;;;;;15.94;90.95;101552.81;6215791;23;20011;-83
2023/08/13 03:10:31;;;;;;;15.10;3.45;;;;;;;15.78;91.45;101528.88;6215601;23;20031;-83
2023/08/13 03:12:57;;;;;;;9.70;3.08;;;;;;;15.83;90.92;101535.34;6215720;23;20011;-82
2023/08/13 03:15:22;;;;;;;11.93;2.80;;;;;;;15.92;91.50;101554.88;6215548;23;20020;-82
2023/08/13 03:17:47;;;;;;;9.98;3.10;;;;;;;15.87;91.41;101566.06;6214424;23;20035;-83
2023/08/13 03:20:13;;;;;;;13.55;3.20;;;;;;;15.79;91.73;101552.75;6215240;23;20019;-83
2023/08/13 03:22:38;;;;;;;12.10;3.20;;;;;;;15.77;92.07;101559.28;6215821;23;20015;-82
2023/08/13 03:25:04;;;;;;;9.90;3.42;;;;;;;15.76;92.17;101553.13;6216000;23;20004;-81
2023/08/13 03:27:30;;;;;;;14.02;3.38;;;;;;;15.82;92.01;101562.25;6189248;23;20325;-83
2023/08/13 03:29:55;;;;;;;9.70;3.20;;;;;;;15.82;92.70;101559.59;6215398;23;20011;-83
2023/08/13 03:32:20;;;;;;;10.85;3.25;;;;;;;15.68;92.69;101545.97;6215551;23;20000;-83
2023/08/13 03:34:46;;;;;;;10.07;3.22;;;;;;;15.67;93.00;101538.97;6189158;23;20008;-83
2023/08/13 03:37:11;;;;;;;13.60;3.45;;;;;;;15.71;92.82;101551.00;6215549;23;20008;-82
2023/08/13 03:39:36;;;;;;;12.48;3.53;;;;;;;15.72;93.80;101552.66;6188586;23;20015;-83
2023/08/13 03:42:02;;;;;;;10.38;3.15;;;;;;;15.72;92.93;101552.66;6215538;23;20011;-82
2023/08/13 03:44:27;;;;;;;12.70;3.20;;;;;;;15.71;93.20;101556.34;6215414;23;20005;-82
2023/08/13 03:46:52;;;;;;;15.57;3.22;;;;;;;15.67;93.31;101549.66;6215587;23;20008;-81
2023/08/13 03:49:18;;;;;;;11.98;3.28;;;;;;;15.55;93.23;101545.75;6215833;23;20131;-82
2023/08/13 03:51:43;;;;;;;12.27;3.30;;;;;;;15.60;93.28;101554.06;6215619;23;20007;-83
2023/08/13 03:54:08;;;;;;;10.10;3.25;;;;;;;15.64;93.41;101555.34;6215791;23;20000;-82
2023/08/13 03:56:34;;;;;;;12.73;3.15;;;;;;;15.53;93.65;101545.91;6215553;23;20055;-82
2023/08/13 03:58:59;;;;;;;11.82;3.13;;;;;;;15.57;94.08;101555.25;6215273;23;20016;-82
2023/08/13 04:01:25;;;;;;;8.18;2.90;;;;;;;15.55;93.92;101546.56;6188682;23;20088;-82
2023/08/13 04:03:50;;;;;;;11.00;3.00;;;;;;;15.56;94.49;101563.44;6215680;23;20024;-82
2023/08/13 04:06:15;;;;;;;11.20;3.70;;;;;;;15.48;94.72;101555.50;6215427;23;20000;-82
2023/08/13 04:08:41;;;;;;;9.40;3.00;;;;;;;15.52;94.06;101564.78;6215356;23;20001;-82
2023/08/13 04:11:06;;;;;;;9.63;3.05;;;;;;;15.51;94.22;101555.97;6215242;23;20005;-81
2023/08/13 04:13:31;;;;;;;9.93;3.20;;;;;;;15.51;94.78;101555.13;6188320;23;20066;-81
2023/08/13 04:15:57;;;;;;;10.13;3.40;;;;;;;15.51;94.68;101565.81;6188888;23;20008;-81
2023/08/13 04:18:22;;;;;;;11.38;3.40;;;;;;;15.55;94.56;101575.16;6215279;23;20008;-82
2023/08/13 04:20:48;;;;;;;14.95;4.00;;;;;;;15.43;94.49;101564.84;6215411;23;20093;-80
2023/08/13 04:23:13;;;;;;;10.85;3.55;;;;;;;15.52;95.01;101570.16;6215173;23;20008;-82
2023/08/13 04:25:39;;;;;;;11.30;3.78;;;;;;;15.48;95.03;101577.69;6215194;23;20012;-81
2023/08/13 04:28:05;;;;;;;12.85;3.50;;;;;;;15.41;94.90;101553.53;6215421;23;20001;-82
2023/08/13 04:30:30;;;;;;;12.23;3.53;;;;;;;15.46;95.04;101569.84;6215452;23;20035;-81
2023/08/13 04:32:56;;;;;;;8.23;3.22;;;;;;;15.27;95.58;101540.91;6217029;23;20036;-82
2023/08/13 04:35:25;;;;;;;10.85;3.55;;;;;;;15.49;95.32;101568.66;6216871;23;20032;-81
2023/08/13 04:37:51;;;;;;;11.20;3.60;;;;;;;15.50;95.24;101569.50;6190664;23;20000;-83
2023/08/13 04:40:17;;;;;;;12.95;3.38;;;;;;;15.44;95.83;101553.16;6217202;23;20394;-82
2023/08/13 04:42:42;;;;;;;10.60;3.40;;;;;;;15.45;95.84;101562.84;6217117;23;20001;-82
2023/08/13 04:45:08;;;;;;;11.68;3.30;;;;;;;15.46;95.48;101569.84;6216959;23;20030;-81
2023/08/13 04:47:33;;;;;;;9.82;3.00;;;;;;;15.52;95.81;101570.16;6190187;23;20441;-82
2023/08/13 04:49:59;;;;;;;9.18;3.20;;;;;;;15.48;96.35;101572.34;6216896;23;20011;-82
2023/08/13 04:52:24;;;;;;;10.63;3.30;;;;;;;15.48;96.61;101584.88;6217040;23;20051;-82
2023/08/13 04:54:49;;;;;;;12.85;3.50;;;;;;;15.52;96.10;101579.00;6216989;23;20012;-82
2023/08/13 04:57:15;;;;;;;11.95;3.25;;;;;;;15.49;96.56;101565.16;6217115;23;20015;-82
2023/08/13 04:59:40;;;;;;;9.80;3.20;;;;;;;15.55;96.12;101580.50;6216737;23;20011;-82
2023/08/13 05:02:06;;;;;;;11.93;3.70;;;;;;;15.38;96.18;101545.84;6217193;23;20001;-81
2023/08/13 05:04:31;;;;;;;13.05;3.65;;;;;;;15.54;96.50;101557.47;6216863;23;20004;-82
2023/08/13 05:06:56;;;;;;;11.07;3.50;;;;;;;15.55;96.64;101559.13;6217001;23;20100;-82
2023/08/13 05:09:22;;;;;;;13.98;3.90;;;;;;;15.61;96.68;101566.44;6216963;23;20008;-83
2023/08/13 05:11:47;;;;;;;16.08;3.60;;;;;;;15.56;96.33;101558.94;6216807;23;20310;-83
2023/08/13 05:14:12;;;;;;;12.20;3.65;;;;;;;15.59;96.68;101552.38;6216657;23;20031;-82
2023/08/13 05:16:38;;;;;;;12.40;3.50;;;;;;;15.55;96.66;101546.56;6189721;23;20094;-82
2023/08/13 05:19:03;;;;;;;17.25;4.18;;;;;;;15.62;96.42;101552.03;6216211;23;20015;-84
2023/08/13 05:21:29;;;;;;;14.25;3.50;;;;;;;15.70;96.35;101568.00;6216970;23;20057;-82
2023/08/13 05:23:54;;;;;;;13.77;3.70;;;;;;;15.71;96.68;101571.53;6190499;23;20009;-85
2023/08/13 05:26:20;;;;;;;10.60;4.18;;;;;;;15.70;96.74;101576.03;6217007;23;20000;-84
2023/08/13 05:28:45;;;;;;;11.43;3.75;;;;;;;15.66;96.58;101573.91;6216805;23;20076;-83
2023/08/13 05:31:10;;;;;;;11.85;3.60;;;;;;;15.75;97.00;101572.84;6216580;23;20039;-83
2023/08/13 05:33:36;;;;;;;13.00;3.45;;;;;;;15.71;96.75;101576.88;6216918;23;20476;-84
2023/08/13 05:36:02;;;;;;;13.65;4.00;;;;;;;15.62;96.94;101559.22;6217021;23;20001;-84
2023/08/13 05:38:27;;;;;;;10.48;3.58;;;;;;;15.65;96.53;101573.09;6216841;23;20005;-85
2023/08/13 05:40:53;;;;;;;9.93;3.40;;;;;;;15.72;97.16;101584.72;6216715;23;20008;-85
2023/08/13 05:43:18;;;;;;;15.48;3.83;;;;;;;15.66;97.31;101569.41;6216374;23;20004;-86
2023/08/13 05:45:43;;;;;;;12.73;3.83;;;;;;;15.72;97.43;101574.03;6216778;23;20389;-86
2023/08/13 05:48:09;;;;;;;14.52;3.97;;;;;;;15.72;97.12;101573.19;6216955;23;20071;-86
2023/08/13 05:50:34;;;;;;;13.82;3.88;;;;;;;15.82;97.37;101583.66;6216804;23;20009;-85
2023/08/13 05:53:00;;;;;;;13.80;3.85;;;;;;;15.86;96.73;101584.97;6189923;23;20387;-84
2023/08/13 05:55:25;;;;;;;10.75;3.88;;;;;;;15.86;96.99;101579.63;6216430;23;20127;-86
2023/08/13 05:57:50;;;;;;;10.02;3.70;;;;;;;15.88;96.53;101577.59;6216668;23;20105;-85
2023/08/13 06:00:16;;;;;;;11.85;3.70;;;;;;;15.93;96.67;101579.78;6217226;23;20099;-85
2023/08/13 06:02:42;;;;;;;12.57;3.85;;;;;;;16.00;96.87;101570.03;6216785;23;20005;-85
2023/08/13 06:05:07;;;;;;;9.90;3.70;;;;;;;16.08;96.16;101575.28;6190235;23;20005;-87
2023/08/13 06:07:34;;;;;;;13.73;3.80;;;;;;;16.20;96.47;101588.25;6216538;23;20011;-86
2023/08/13 06:09:59;;;;;;;13.50;3.97;;;;;;;16.22;96.21;101589.72;6216881;23;20039;-84
2023/08/13 06:12:25;;;;;;;14.27;3.85;;;;;;;16.30;96.08;101591.50;6216710;23;20437;-86
2023/08/13 06:14:50;;;;;;;9.73;3.85;;;;;;;16.27;96.06;101579.31;6216965;23;20422;-85
2023/08/13 06:17:17;;;;;;;14.23;3.53;;;;;;;16.21;96.14;101580.03;6217082;23;20095;-87
2023/08/13 06:19:43;;;;;;;9.27;3.47;;;;;;;16.30;95.94;101587.97;6216088;23;20021;-85
2023/08/13 06:22:09;;;;;;;11.63;3.45;;;;;;;16.26;96.19;101579.50;6216867;23;20043;-86
2023/08/13 06:24:34;;;;;;;10.40;3.30;;;;;;;16.25;95.66;101570.63;6216958;23;20004;-86
2023/08/13 06:26:59;;;;;;;14.18;4.03;;;;;;;16.39;95.71;101587.72;6216828;23;20008;-86
2023/08/13 06:29:25;;;;;;;11.00;3.50;;;;;;;16.42;96.21;101581.19;6216406;23;20052;-86
2023/08/13 06:31:50;;;;;;;10.90;3.35;;;;;;;16.49;95.14;101586.66;6216722;23;20107;-85
2023/08/13 06:34:16;;;;;;;12.30;3.53;;;;;;;16.49;96.00;101582.09;6217021;23;20001;-86
2023/08/13 06:36:41;;;;;;;11.50;3.45;;;;;;;16.59;96.01;101594.41;6189828;23;20001;-85
2023/08/13 06:39:07;;;;;;;11.07;3.78;;;;;;;16.60;96.11;101569.28;6190048;23;20448;-84
2023/08/13 06:41:32;;;;;;;15.48;3.80;;;;;;;16.75;95.28;101588.88;6190116;23;20001;-86
2023/08/13 06:43:58;;;;;;;9.18;3.63;;;;;;;16.72;94.80;101578.53;6190300;23;20008;-86
2023/08/13 06:46:24;;;;;;;13.52;3.67;;;;;;;16.77;94.08;101576.13;6216294;23;20007;-86
2023/08/13 06:48:49;;;;;;;10.45;3.30;;;;;;;16.87;93.97;101596.47;6216383;23;20004;-83
2023/08/13 06:51:14;;;;;;;13.07;3.38;;;;;;;16.94;93.79;101597.38;6216395;23;20098;-85
2023/08/13 06:53:40;;;;;;;13.57;3.40;;;;;;;16.89;94.00;101578.34;6216065;23;20005;-85
2023/08/13 06:56:06;;;;;;;9.35;3.00;;;;;;;16.99;94.06;101589.63;6215672;23;20468;-84
2023/08/13 06:58:31;;;;;;;12.77;3.10;;;;;;;17.08;93.75;101593.06;6216499;23;20000;-85
2023/08/13 07:00:57;;;;;;;10.40;3.38;;;;;;;16.94;94.35;101559.88;6216402;23;20012;-85
2023/08/13 07:03:22;;;;;;;12.50;3.40;;;;;;;17.14;93.49;101570.03;6215897;23;20004;-87
2023/08/13 07:05:47;;;;;;;11.80;3.40;;;;;;;17.13;93.59;101560.34;6216546;23;20449;-85
2023/08/13 07:08:13;;;;;;;12.07;3.42;;;;;;;17.33;92.79;101590.06;6216302;23;20001;-85
2023/08/13 07:10:39;;;;;;;11.38;3.20;;;;;;;17.37;93.55;101579.78;6216343;23;20340;-87
2023/08/13 07:13:05;;;;;;;10.88;3.13;;;;;;;17.34;92.82;101571.13;6217180;23;20005;-89
2023/08/13 07:15:30;;;;;;;12.68;3.53;;;;;;;17.37;93.09;101563.69;6216710;23;20008;-87
2023/08/13 07:17:56;;;;;;;10.07;3.17;;;;;;;17.41;92.80;101570.34;6216605;23;20020;-84
2023/08/13 07:20:21;;;;;;;11.95;3.08;;;;;;;17.60;92.61;101584.97;6216739;23;20337;-88
2023/08/13 07:22:47;;;;;;;11.95;3.70;;;;;;;17.51;92.92;101560.13;6190369;23;20079;-85
2023/08/13 07:25:13;;;;;;;11.80;3.40;;;;;;;17.76;92.46;101583.91;6216618;23;20460;-85
2023/08/13 07:27:39;;;;;;;11.65;3.38;;;;;;;17.76;91.83;101567.81;6216201;23;20035;-85
2023/08/13 07:30:07;;;;;;;9.30;3.05;;;;;;;17.84;92.15;101573.06;6216484;23;20004;-86
2023/08/13 07:32:34;;;;;;;12.93;3.22;;;;;;;17.90;91.62;101576.81;6216951;23;20281;-85
2023/08/13 07:35:00;;;;;;;13.20;3.45;;;;;;;17.97;92.03;101569.66;6216216;23;20016;-87
2023/08/13 07:37:26;;;;;;;14.50;3.55;;;;;;;18.12;91.72;101572.28;6216613;23;20012;-84
2023/08/13 07:39:51;;;;;;;9.45;3.03;;;;;;;18.20;91.46;101576.69;6217583;23;20040;-87
2023/08/13 07:42:16;;;;;;;9.32;2.90;;;;;;;18.21;91.42;101564.09;6191092;23;20005;-88
2023/08/13 07:44:42;;;;;;;12.25;3.20;;;;;;;18.18;90.36;101559.13;6219003;23;20008;-86
2023/08/13 07:47:07;;;;;;;13.55;3.42;;;;;;;18.42;90.62;101579.34;6218617;23;20017;-85
2023/08/13 07:49:33;;;;;;;9.63;3.20;;;;;;;18.35;91.00;101565.84;6219257;23;20005;-88
2023/08/13 07:51:58;;;;;;;9.05;2.97;;;;;;;18.56;89.93;101585.63;6197743;23;20017;-86
2023/08/13 07:54:24;;;;;;;7.05;2.67;;;;;;;18.46;88.65;101567.19;6234190;23;20052;-85
2023/08/13 07:56:49;;;;;;;8.68;2.88;;;;;;;18.61;88.83;101564.38;6232189;23;20008;-85
2023/08/13 07:59:14;;;;;;;11.70;2.90;;;;;;;18.76;87.37;101571.47;6230455;23;20433;-86
2023/08/13 08:01:42;;;;;;;12.48;3.25;;;;;;;18.67;85.93;101552.84;6230677;23;20036;-85
2023/08/13 08:04:07;;;;;;;10.43;2.83;;;;;;;18.85;87.99;101570.28;6196483;23;20032;-85
2023/08/13 08:06:33;;;;;;;10.27;2.63;;;;;;;18.88;85.80;101569.03;6192208;23;20314;-84
2023/08/13 08:08:58;;;;;;;10.05;2.85;;;;;;;18.87;86.24;101557.47;6219512;23;20004;-84
2023/08/13 08:11:23;;;;;;;9.43;2.88;;;;;;;19.02;86.41;101575.31;6219466;23;20396;-86
2023/08/13 08:13:49;;;;;;;9.52;2.90;;;;;;;19.02;86.61;101575.31;6192907;23;20448;-86
2023/08/13 08:16:15;;;;;;;10.10;2.83;;;;;;;19.09;85.96;101586.94;6192346;23;20009;-86
2023/08/13 08:18:40;;;;;;;8.70;2.60;;;;;;;18.97;86.52;101567.84;6218862;23;20012;-85
2023/08/13 08:21:05;;;;;;;15.98;3.08;;;;;;;19.04;84.86;101576.00;6218316;23;20486;-89
2023/08/13 08:23:32;;;;;;;9.35;2.60;;;;;;;19.04;84.40;101578.69;6218456;23;20009;-87
2023/08/13 08:25:58;;;;;;;10.50;2.88;;;;;;;18.96;84.33;101567.03;6218629;23;20530;-87
2023/08/13 08:28:25;;;;;;;13.48;2.90;;;;;;;18.99;83.86;101575.72;6218044;23;20032;-86
2023/08/13 08:30:50;;;;;;;10.00;2.80;;;;;;;18.96;84.42;101550.09;6191393;23;20000;-86
2023/08/13 08:33:16;;;;;;;9.68;2.72;;;;;;;19.07;84.57;101578.28;6191345;23;20001;-86
2023/08/13 08:35:41;;;;;;;11.38;2.80;;;;;;;19.14;84.27;101570.25;6191724;23;20019;-87
2023/08/13 08:38:06;;;;;;;13.93;2.95;;;;;;;19.21;84.42;101574.59;6192308;23;20421;-87
2023/08/13 08:40:32;;;;;;;11.95;2.90;;;;;;;19.25;84.16;101574.19;6192080;23;20365;-85
2023/08/13 08:42:57;;;;;;;11.88;2.90;;;;;;;19.25;82.69;101566.13;6218810;23;20102;-87
2023/08/13 08:45:23;;;;;;;10.57;2.85;;;;;;;19.35;82.21;101574.66;6192777;23;20039;-85
2023/08/13 08:47:51;;;;;;;10.38;2.97;;;;;;;19.29;80.85;101560.16;6192635;23;20115;-89
2023/08/13 08:50:17;;;;;;;10.60;2.92;;;;;;;19.45;81.46;101575.06;6192383;23;20028;-88
2023/08/13 08:52:43;;;;;;;12.07;3.00;;;;;;;19.44;79.99;101569.94;6218428;23;20008;-89
2023/08/13 08:55:12;;;;;;;7.65;2.80;;;;;;;19.56;80.69;101564.75;6190868;23;20429;-86
2023/08/13 08:57:38;;;;;;;11.68;3.03;;;;;;;19.67;82.00;101572.22;6217751;23;20039;-86
2023/08/13 09:00:04;;;;;;;10.32;2.60;;;;;;;19.78;80.22;101568.09;6217719;23;20007;-88
2023/08/13 09:02:30;;;;;;;10.18;3.05;;;;;;;19.89;79.43;101569.38;6218905;23;20004;-87
2023/08/13 09:04:56;;;;;;;8.15;2.88;;;;;;;19.94;79.47;101566.91;6218560;23;20333;-85
2023/08/13 09:07:28;;;;;;;11.18;2.78;;;;;;;20.00;78.71;101563.41;6218482;23;20417;-88
2023/08/13 09:09:54;;;;;;;;;;;;;;;20.08;80.32;101562.34;6218681;23;20425;-87
2023/08/13 09:12:19;;;;;;;9.98;2.70;;;;;;;20.09;77.25;101552.41;6191630;23;19904;-87
2023/08/13 09:14:45;;;;;;;7.93;2.72;;;;;;;20.12;76.19;101552.81;6192427;23;20012;-87
2023/08/13 09:17:12;;;;;;;7.32;2.83;;;;;;;20.10;75.46;101540.59;6219320;23;20038;-87
2023/08/13 09:19:37;;;;;;;9.63;3.00;;;;;;;20.14;74.98;101552.63;6217955;23;20022;-87
2023/08/13 09:22:03;;;;;;;9.57;3.00;;;;;;;20.22;75.52;101541.63;6218728;23;20363;-88
2023/08/13 09:24:37;;;;;;;11.50;3.03;;;;;;;20.33;73.92;101547.44;6218642;23;20015;-87
2023/08/13 09:27:05;;;;;;;12.98;3.03;;;;;;;20.33;74.47;101544.72;6218626;23;20004;-85
2023/08/13 09:29:31;;;;;;;9.45;2.85;;;;;;;20.33;73.87;101540.16;6218562;23;20046;-85
2023/08/13 09:31:58;;;;;;;9.93;3.00;;;;;;;20.37;73.47;101545.97;6216469;23;20039;-83
2023/08/13 09:34:25;;;;;;;11.65;2.85;;;;;;;20.32;74.27;101518.84;6216810;23;20063;-84
2023/08/13 09:36:54;;;;;;;10.43;2.83;;;;;;;20.50;72.95;101529.78;6189864;23;20043;-84
2023/08/13 09:39:22;;;;;;;8.23;2.80;;;;;;;20.63;73.83;101525.38;6216699;23;20001;-82
2023/08/13 09:41:51;;;;;;;9.95;3.28;;;;;;;20.71;71.77;101522.44;6217006;23;20005;-84
2023/08/13 09:44:20;;;;;;;9.15;3.15;;;;;;;20.77;71.62;101526.97;6216826;23;20014;-85
2023/08/13 09:46:53;;;;;;;11.40;3.00;;;;;;;20.74;72.06;101516.66;6190123;23;20000;-84
2023/08/13 09:49:20;;;;;;;10.70;2.90;;;;;;;20.82;70.86;101527.19;6217354;23;20059;-83
2023/08/13 09:51:49;;;;;;;9.45;2.83;;;;;;;20.85;70.76;101525.94;6216719;23;20005;-84
2023/08/13 09:54:24;;;;;;;10.75;2.80;;;;;;;20.87;71.49;101521.16;6217419;23;20054;-84
2023/08/13 09:56:58;;;;;;;8.68;2.70;;;;;;;21.02;69.29;101512.81;6217767;23;20004;-84
2023/08/13 09:59:25;;;;;;;9.13;2.83;;;;;;;21.00;69.42;101504.13;6216552;23;20112;-84
2023/08/13 10:01:51;;;;;;;7.45;2.50;;;;;;;21.01;69.00;101489.59;6216747;23;20021;-85
2023/08/13 10:04:17;;;;;;;9.90;2.90;;;;;;;21.18;69.48;101510.66;6215993;23;20012;-84
2023/08/13 10:06:43;;;;;;;13.00;3.25;;;;;;;21.08;69.62;101495.75;6215857;23;20004;-83
2023/08/13 10:09:10;;;;;;;13.45;3.30;;;;;;;21.18;67.72;101492.63;6215322;23;20011;-84
2023/08/13 10:11:35;;;;;;;9.68;2.97;;;;;;;21.45;68.82;101510.47;6216428;23;20008;-83
2023/08/13 10:14:00;;;;;;;10.25;2.85;;;;;;;21.53;68.01;101510.22;6189443;23;20102;-83
2023/08/13 10:16:27;;;;;;;10.20;2.97;;;;;;;21.49;66.77;101492.81;6215596;23;20001;-83
2023/08/13 10:18:56;;;;;;;10.35;3.00;;;;;;;21.60;67.65;101494.81;6216102;23;20043;-82
2023/08/13 10:21:38;;;;;;;9.48;2.80;;;;;;;21.71;68.89;101514.06;6216396;23;20008;-82
2023/08/13 10:24:05;;;;;;;7.88;2.65;;;;;;;21.69;65.63;101506.16;6216763;23;20088;-83
2023/08/13 10:26:31;;;;;;;9.00;2.95;;;;;;;21.66;65.44;101501.19;6216571;23;20012;-83
2023/08/13 10:28:57;;;;;;;9.48;3.30;;;;;;;21.46;66.19;101487.88;6216249;23;20051;-84
2023/08/13 10:31:23;;;;;;;12.63;3.20;;;;;;;21.49;66.92;101507.13;6189685;23;20005;-84
2023/08/13 10:34:10;;;;;;;8.68;3.03;;;;;;;21.40;68.02;101502.22;6189804;23;20035;-84
2023/08/13 10:36:43;;;;;;;8.90;2.67;;;;;;;21.30;67.61;101498.13;6216999;23;20032;-83
2023/08/13 10:39:30;;;;;;;9.27;2.90;;;;;;;21.30;69.24;101500.81;6216443;23;20019;-85
2023/08/13 10:41:56;;;;;;;8.10;2.70;;;;;;;21.33;67.66;101497.72;6215824;23;20103;-84
2023/08/13 10:44:30;;;;;;;12.65;3.10;;;;;;;21.42;68.54;101500.13;6215013;23;20449;-83
2023/08/13 10:46:56;;;;;;;7.75;2.80;;;;;;;21.51;67.26;101501.50;6215278;23;20098;-83
2023/08/13 10:49:21;;;;;;;9.10;3.00;;;;;;;21.64;68.08;101493.34;6215611;23;20004;-83
2023/08/13 10:51:50;;;;;;;11.93;3.20;;;;;;;21.83;66.47;101495.28;6215824;23;20414;-84
2023/08/13 10:54:16;;;;;;;8.73;3.05;;;;;;;22.04;64.42;101496.75;6215955;23;20008;-85
2023/08/13 10:56:45;;;;;;;8.88;2.75;;;;;;;22.04;63.79;101467.03;6215738;23;20401;-83
2023/08/13 10:59:11;;;;;;;8.00;2.78;;;;;;;22.27;62.54;101489.88;6215603;23;20011;-83
2023/08/13 11:02:08;;;;;;;9.80;2.80;;;;;;;22.46;63.09;101493.41;6216339;23;20083;-84
2023/08/13 11:04:34;;;;;;;9.48;2.80;;;;;;;22.59;62.99;101497.84;6215560;23;20027;-83
2023/08/13 11:07:00;;;;;;;9.02;3.00;;;;;;;22.71;61.86;101492.50;6189232;23;20061;-83
2023/08/13 11:09:26;;;;;;;10.63;3.13;;;;;;;22.74;63.04;101493.94;6215920;23;20005;-85
2023/08/13 11:11:52;;;;;;;11.02;3.22;;;;;;;22.63;63.09;101482.84;6215672;23;20011;-83
2023/08/13 11:14:19;;;;;;;9.52;2.70;;;;;;;22.64;61.38;101484.47;6215833;23;20008;-83
2023/08/13 11:16:47;;;;;;;7.57;2.85;;;;;;;22.57;63.93;101456.72;6215457;23;20059;-84